createdAt,value
2024-02-02T00:00:41.557Z,14.32
2024-02-02T00:03:09.283Z,15.25
2024-02-02T00:05:36.851Z,14.85
2024-02-02T00:08:04.978Z,14.40
2024-02-02T00:10:32.539Z,14.68
2024-02-02T00:13:00.113Z,13.90
2024-02-02T00:15:27.864Z,14.15
2024-02-02T00:17:55.637Z,14.95
2024-02-02T00:20:23.248Z,13.55
2024-02-02T00:22:51.726Z,14.50
2024-02-02T00:25:20.209Z,15.00
2024-02-02T00:27:47.885Z,15.80
2024-02-02T00:30:15.645Z,15.82
2024-02-02T00:32:45.974Z,16.98
2024-02-02T00:35:14.260Z,17.35
2024-02-02T00:37:41.851Z,17.10
2024-02-02T00:40:10.353Z,17.92
2024-02-02T00:42:38.210Z,17.80
2024-02-02T00:45:06.193Z,16.48
2024-02-02T00:47:33.811Z,16.55
2024-02-02T00:50:01.694Z,17.58
2024-02-02T00:52:29.378Z,16.65
2024-02-02T00:54:56.840Z,18.52
2024-02-02T00:57:24.347Z,16.80
2024-02-02T00:59:52.182Z,18.13
2024-02-02T01:02:19.807Z,17.25
2024-02-02T01:04:47.832Z,17.63
2024-02-02T01:07:19.644Z,18.63
2024-02-02T01:09:47.970Z,18.05
2024-02-02T01:12:16.294Z,18.08
2024-02-02T01:14:43.958Z,18.13
2024-02-02T01:17:11.487Z,18.00
2024-02-02T01:19:39.013Z,18.33
2024-02-02T01:22:07.196Z,18.67
2024-02-02T01:24:34.683Z,18.92
2024-02-02T01:27:02.186Z,18.08
2024-02-02T01:29:30.761Z,18.30
2024-02-02T01:31:58.311Z,18.35
2024-02-02T01:34:26.017Z,18.58
2024-02-02T01:36:53.574Z,18.10
2024-02-02T01:39:21.097Z,17.73
2024-02-02T01:41:49.595Z,17.80
2024-02-02T01:44:17.153Z,16.85
2024-02-02T01:46:50.901Z,17.33
2024-02-02T01:49:18.444Z,17.15
2024-02-02T01:51:46.091Z,15.63
2024-02-02T01:54:13.593Z,16.20
2024-02-02T01:56:41.156Z,14.63
2024-02-02T01:59:09.315Z,14.80
2024-02-02T02:01:36.885Z,14.70
2024-02-02T02:04:04.993Z,18.60
2024-02-02T02:06:32.611Z,16.30
2024-02-02T02:09:00.117Z,16.27
2024-02-02T02:11:27.694Z,15.85
2024-02-02T02:13:55.995Z,15.80
2024-02-02T02:16:23.507Z,15.88
2024-02-02T02:18:56.156Z,15.02
2024-02-02T02:21:30.329Z,15.35
2024-02-02T02:23:58.044Z,15.20
2024-02-02T02:26:27.271Z,14.80
2024-02-02T02:28:54.756Z,15.65
2024-02-02T02:31:22.180Z,16.05
2024-02-02T02:33:50.485Z,15.88
2024-02-02T02:36:18.163Z,14.85
2024-02-02T02:38:45.807Z,14.82
2024-02-02T02:41:13.325Z,15.15
2024-02-02T02:43:41.196Z,15.18
2024-02-02T02:46:09.007Z,14.65
2024-02-02T02:48:38.098Z,13.68
2024-02-02T02:51:05.909Z,13.32
2024-02-02T02:53:33.402Z,13.30
2024-02-02T02:56:00.849Z,14.02
2024-02-02T02:58:28.311Z,13.02
2024-02-02T03:00:55.911Z,12.48
2024-02-02T03:03:23.519Z,13.55
2024-02-02T03:05:51.894Z,12.90
2024-02-02T03:08:19.377Z,13.63
2024-02-02T03:10:46.985Z,13.63
2024-02-02T03:13:14.512Z,13.02
2024-02-02T03:15:43.026Z,13.80
2024-02-02T03:18:12.679Z,12.55
2024-02-02T03:20:40.229Z,13.43
2024-02-02T03:23:07.949Z,15.57
2024-02-02T03:25:35.402Z,14.73
2024-02-02T03:28:02.901Z,15.02
2024-02-02T03:30:30.852Z,15.05
2024-02-02T03:32:58.627Z,15.95
2024-02-02T03:35:26.662Z,15.82
2024-02-02T03:37:54.185Z,16.17
2024-02-02T03:40:21.611Z,14.80
2024-02-02T03:42:49.067Z,15.52
2024-02-02T03:45:16.961Z,16.17
2024-02-02T03:47:44.528Z,17.40
2024-02-02T03:50:12.247Z,16.95
2024-02-02T03:52:39.913Z,15.73
2024-02-02T03:55:08.044Z,15.85
2024-02-02T03:57:35.655Z,17.25
2024-02-02T04:00:05.745Z,17.42
2024-02-02T04:02:40.001Z,17.00
2024-02-02T04:05:07.852Z,17.17
2024-02-02T04:07:35.354Z,16.95
2024-02-02T04:10:02.926Z,17.98
2024-02-02T04:12:30.559Z,16.38
2024-02-02T04:14:58.085Z,17.27
2024-02-02T04:17:25.824Z,17.45
2024-02-02T04:19:53.342Z,16.45
2024-02-02T04:22:20.903Z,17.05
2024-02-02T04:24:48.337Z,17.85
2024-02-02T04:27:15.808Z,16.85
2024-02-02T04:29:43.337Z,17.98
2024-02-02T04:32:11.055Z,17.15
2024-02-02T04:34:38.801Z,18.00
2024-02-02T04:37:06.321Z,18.33
2024-02-02T04:39:33.867Z,17.25
2024-02-02T04:42:01.451Z,18.00
2024-02-02T04:44:29.257Z,17.50
2024-02-02T04:46:56.698Z,18.55
2024-02-02T04:49:24.613Z,17.67
2024-02-02T04:51:52.107Z,18.40
2024-02-02T04:54:19.571Z,18.08
2024-02-02T04:56:46.988Z,18.45
2024-02-02T04:59:14.456Z,17.50
2024-02-02T05:01:42.042Z,18.25
2024-02-02T05:04:09.533Z,17.38
2024-02-02T05:06:37.106Z,18.05
2024-02-02T05:09:04.962Z,16.70
2024-02-02T05:11:32.463Z,17.23
2024-02-02T05:13:59.933Z,17.92
2024-02-02T05:16:27.400Z,18.33
2024-02-02T05:18:54.956Z,17.50
2024-02-02T05:21:22.601Z,17.63
2024-02-02T05:23:50.644Z,17.92
2024-02-02T05:26:18.550Z,17.98
2024-02-02T05:28:46.563Z,17.42
2024-02-02T05:31:14.026Z,17.45
2024-02-02T05:33:43.861Z,16.40
2024-02-02T05:36:12.913Z,17.02
2024-02-02T05:38:41.667Z,16.80
2024-02-02T05:41:09.158Z,16.85
2024-02-02T05:43:36.614Z,16.80
2024-02-02T05:46:06.386Z,16.45
2024-02-02T05:48:33.927Z,15.80
2024-02-02T05:51:01.828Z,15.73
2024-02-02T05:53:29.398Z,15.95
2024-02-02T05:55:56.829Z,15.15
2024-02-02T05:58:24.361Z,14.75
2024-02-02T06:00:51.864Z,15.73
2024-02-02T06:03:19.496Z,15.95
2024-02-02T06:05:47.164Z,16.58
2024-02-02T06:08:15.918Z,15.90
2024-02-02T06:10:43.447Z,15.90
2024-02-02T06:13:11.454Z,18.95
2024-02-02T06:15:39.266Z,16.45
2024-02-02T06:18:07.299Z,14.13
2024-02-02T06:20:34.859Z,14.90
2024-02-02T06:23:04.211Z,15.18
2024-02-02T06:25:32.273Z,13.73
2024-02-02T06:27:59.677Z,14.30
2024-02-02T06:30:27.607Z,14.20
2024-02-02T06:33:01.098Z,13.85
2024-02-02T06:35:29.023Z,13.63
2024-02-02T06:37:56.532Z,13.57
2024-02-02T06:40:24.684Z,13.88
2024-02-02T06:42:52.192Z,13.75
2024-02-02T06:45:21.054Z,13.10
2024-02-02T06:47:48.894Z,12.60
2024-02-02T06:50:16.479Z,12.57
2024-02-02T06:52:44.536Z,12.73
2024-02-02T06:55:13.233Z,11.90
2024-02-02T06:57:41.373Z,13.45
2024-02-02T07:00:16.138Z,12.05
2024-02-02T07:02:44.365Z,12.38
2024-02-02T07:05:15.300Z,12.10
2024-02-02T07:07:42.860Z,11.63
2024-02-02T07:10:17.401Z,12.18
2024-02-02T07:13:03.795Z,11.32
2024-02-02T07:15:32.917Z,11.07
2024-02-02T07:18:00.684Z,12.07
2024-02-02T07:20:31.520Z,11.40
2024-02-02T07:23:05.112Z,11.63
2024-02-02T07:25:37.990Z,11.05
2024-02-02T07:28:06.947Z,11.23
2024-02-02T07:30:52.145Z,10.80
2024-02-02T07:33:19.861Z,11.05
2024-02-02T07:35:47.486Z,10.63
2024-02-02T07:38:50.209Z,10.52
2024-02-02T07:41:26.111Z,10.85
2024-02-02T07:44:00.866Z,10.15
2024-02-02T07:46:28.707Z,10.57
2024-02-02T07:48:56.673Z,10.43
2024-02-02T07:51:26.117Z,10.23
2024-02-02T07:53:54.267Z,10.23
2024-02-02T07:56:23.929Z,9.57
2024-02-02T07:58:51.618Z,9.88
2024-02-02T08:01:19.466Z,9.40
2024-02-02T08:03:47.856Z,10.00
2024-02-02T08:06:15.591Z,9.75
2024-02-02T08:08:43.154Z,9.23
2024-02-02T08:11:10.679Z,9.40
2024-02-02T08:13:38.445Z,9.10
2024-02-02T08:16:06.199Z,9.02
2024-02-02T08:18:34.279Z,9.18
2024-02-02T08:21:03.676Z,9.20
2024-02-02T08:23:32.011Z,8.95
2024-02-02T08:25:59.507Z,9.00
2024-02-02T08:28:28.603Z,8.90
2024-02-02T08:30:57.462Z,8.38
2024-02-02T08:33:25.131Z,8.73
2024-02-02T08:35:52.772Z,8.40
2024-02-02T08:38:20.297Z,8.60
2024-02-02T08:40:49.360Z,8.75
2024-02-02T08:43:24.199Z,8.63
2024-02-02T08:46:08.733Z,7.60
2024-02-02T08:48:50.039Z,8.02
2024-02-02T08:51:25.388Z,8.07
2024-02-02T08:54:12.671Z,7.78
2024-02-02T08:56:40.148Z,7.95
2024-02-02T08:59:29.717Z,7.72
2024-02-02T09:01:57.178Z,7.10
2024-02-02T09:04:50.669Z,7.32
2024-02-02T09:07:18.981Z,7.95
2024-02-02T09:09:47.417Z,7.30
2024-02-02T09:12:15.106Z,7.10
2024-02-02T09:14:44.118Z,7.25
2024-02-02T09:17:12.526Z,7.47
2024-02-02T09:19:44.439Z,7.35
2024-02-02T09:22:13.711Z,7.00
2024-02-02T09:24:49.817Z,6.72
2024-02-02T09:27:42.147Z,7.05
2024-02-02T09:30:18.612Z,6.82
2024-02-02T09:32:46.416Z,6.38
2024-02-02T09:35:55.162Z,6.35
2024-02-02T09:38:22.943Z,6.63
2024-02-02T09:41:07.239Z,7.13
2024-02-02T09:43:59.618Z,6.63
2024-02-02T09:46:57.814Z,6.32
2024-02-02T09:49:46.576Z,6.30
2024-02-02T09:52:26.602Z,6.70
2024-02-02T09:54:59.158Z,6.70
2024-02-02T09:57:44.766Z,6.47
2024-02-02T10:00:27.788Z,6.93
2024-02-02T10:03:10.075Z,6.75
2024-02-02T10:06:02.202Z,7.00
2024-02-02T10:09:13.347Z,6.85
2024-02-02T10:11:58.994Z,6.70
2024-02-02T10:14:35.601Z,6.90
2024-02-02T10:17:45.430Z,6.85
2024-02-02T10:20:32.684Z,8.35
2024-02-02T10:23:32.048Z,7.75
2024-02-02T10:26:18.409Z,7.78
2024-02-02T10:28:58.311Z,6.70
2024-02-02T10:31:25.825Z,6.43
2024-02-02T10:34:10.271Z,6.93
2024-02-02T10:37:12.980Z,6.68
2024-02-02T10:39:48.409Z,5.82
2024-02-02T10:42:25.186Z,6.43
2024-02-02T10:44:55.515Z,5.60
2024-02-02T10:47:29.241Z,6.03
2024-02-02T10:50:08.163Z,5.85
2024-02-02T10:52:36.006Z,5.32
2024-02-02T10:55:27.867Z,5.00
2024-02-02T10:58:10.750Z,5.10
2024-02-02T11:00:53.442Z,5.10
2024-02-02T11:03:30.072Z,5.45
2024-02-02T11:06:11.279Z,5.05
2024-02-02T11:08:41.794Z,5.97
2024-02-02T11:11:10.079Z,6.40
2024-02-02T11:13:43.334Z,6.03
2024-02-02T11:16:35.402Z,6.00
2024-02-02T11:19:20.233Z,5.43
2024-02-02T11:21:53.840Z,5.32
2024-02-02T11:24:59.917Z,5.15
2024-02-02T11:27:37.885Z,4.65
2024-02-02T11:30:08.741Z,5.30
2024-02-02T11:32:54.342Z,4.70
2024-02-02T11:35:37.213Z,5.10
2024-02-02T11:38:15.725Z,5.53
2024-02-02T11:40:44.368Z,5.55
2024-02-02T11:43:11.915Z,5.40
2024-02-02T11:45:45.599Z,5.20
2024-02-02T11:48:37.907Z,5.05
2024-02-02T11:51:05.808Z,5.22
2024-02-02T11:54:06.801Z,4.68
2024-02-02T11:56:39.647Z,4.05
2024-02-02T11:59:12.320Z,3.67
2024-02-02T12:02:07.276Z,4.63
2024-02-02T12:07:44.170Z,4.35
2024-02-02T12:10:15.976Z,4.68
2024-02-02T12:12:47.131Z,4.55
2024-02-02T12:15:15.712Z,4.22
2024-02-02T12:17:43.359Z,4.18
2024-02-02T12:20:12.039Z,4.75
2024-02-02T12:22:40.967Z,4.82
2024-02-02T12:25:14.937Z,3.95
2024-02-02T12:27:43.306Z,4.07
2024-02-02T12:30:11.563Z,4.22
2024-02-02T12:32:42.212Z,3.72
2024-02-02T12:35:09.730Z,4.03
2024-02-02T12:37:48.760Z,3.65
2024-02-02T12:40:16.890Z,3.45
2024-02-02T12:42:44.892Z,3.30
2024-02-02T12:45:14.010Z,3.20
2024-02-02T12:47:42.492Z,3.38
2024-02-02T12:50:16.720Z,3.20
2024-02-02T12:52:45.510Z,2.50
2024-02-02T12:55:14.433Z,3.15
2024-02-02T12:57:42.927Z,3.50
2024-02-02T13:00:17.304Z,5.75
2024-02-02T13:02:46.767Z,5.18
2024-02-02T13:05:18.157Z,5.68
2024-02-02T13:07:46.826Z,7.38
2024-02-02T13:10:14.401Z,4.75
2024-02-02T13:12:46.131Z,4.38
2024-02-02T13:15:15.129Z,4.95
2024-02-02T13:17:44.437Z,5.60
2024-02-02T13:20:15.390Z,5.25
2024-02-02T13:22:54.912Z,3.40
2024-02-02T13:25:26.057Z,3.65
2024-02-02T13:27:54.899Z,3.25
2024-02-02T13:30:28.622Z,2.97
2024-02-02T13:32:58.361Z,1.70
2024-02-02T13:35:32.301Z,1.40
2024-02-02T13:38:03.740Z,1.50
2024-02-02T13:40:31.772Z,1.80
2024-02-02T13:42:59.654Z,2.40
2024-02-02T13:45:29.888Z,2.05
2024-02-02T13:48:01.375Z,1.75
2024-02-02T13:50:39.406Z,2.00
2024-02-02T13:53:07.126Z,1.50
2024-02-02T13:55:35.026Z,1.20
2024-02-02T13:58:03.385Z,1.20
2024-02-02T14:00:32.359Z,1.40
2024-02-02T14:03:09.701Z,1.30
2024-02-02T14:05:44.414Z,1.40
2024-02-02T14:10:48.000Z,1.10
2024-02-02T14:13:24.639Z,1.38
2024-02-02T14:15:57.196Z,1.90
2024-02-02T14:18:25.146Z,1.20
2024-02-02T14:20:52.816Z,1.48
2024-02-02T14:23:20.262Z,1.20
2024-02-02T14:25:47.990Z,1.52
2024-02-02T14:28:32.589Z,1.20
2024-02-02T14:31:26.686Z,1.40
2024-02-02T14:33:55.332Z,1.27
2024-02-02T14:36:23.089Z,1.77
2024-02-02T14:38:50.650Z,1.65
2024-02-02T14:41:18.248Z,1.30
2024-02-02T14:43:45.843Z,1.20
2024-02-02T14:46:13.548Z,1.50
2024-02-02T14:48:41.604Z,1.30
2024-02-02T14:51:09.167Z,1.50
2024-02-02T14:53:36.662Z,1.60
2024-02-02T14:56:04.498Z,1.65
2024-02-02T14:58:34.303Z,1.40
2024-02-02T15:01:02.573Z,1.50
2024-02-02T15:03:30.334Z,1.40
2024-02-02T15:06:00.019Z,1.50
2024-02-02T15:08:28.137Z,1.52
2024-02-02T15:10:55.618Z,1.50
2024-02-02T15:13:23.059Z,1.50
2024-02-02T15:15:50.794Z,1.50
2024-02-02T15:18:18.363Z,1.48
2024-02-02T15:20:45.968Z,1.60
2024-02-02T15:23:13.477Z,1.27
2024-02-02T15:25:40.936Z,1.67
2024-02-02T15:28:08.400Z,1.25
2024-02-02T15:30:35.925Z,1.42
2024-02-02T15:33:03.556Z,1.48
2024-02-02T15:35:31.206Z,1.50
2024-02-02T15:37:58.761Z,1.55
2024-02-02T15:40:26.345Z,1.45
2024-02-02T15:42:54.024Z,1.20
2024-02-02T15:45:22.377Z,1.30
2024-02-02T15:47:52.026Z,1.40
2024-02-02T15:50:19.918Z,1.08
2024-02-02T15:52:47.904Z,1.48
2024-02-02T15:55:16.095Z,1.60
2024-02-02T15:57:46.362Z,1.58
2024-02-02T16:00:21.652Z,1.35
2024-02-02T16:02:49.902Z,1.50
2024-02-02T16:05:20.711Z,1.25
2024-02-02T16:07:48.501Z,2.20
2024-02-02T16:10:17.299Z,2.20
2024-02-02T16:12:45.157Z,1.83
2024-02-02T16:15:12.725Z,1.60
2024-02-02T16:17:43.320Z,1.60
2024-02-02T16:20:11.437Z,1.83
2024-02-02T16:22:39.784Z,1.58
2024-02-02T16:25:09.563Z,1.50
2024-02-02T16:27:37.240Z,1.67
2024-02-02T16:30:05.909Z,1.83
2024-02-02T16:32:33.485Z,1.60
2024-02-02T16:35:04.688Z,1.80
2024-02-02T16:37:32.318Z,1.52
2024-02-02T16:39:59.961Z,1.58
2024-02-02T16:42:27.974Z,1.52
2024-02-02T16:44:55.594Z,2.05
2024-02-02T16:47:23.290Z,1.40
2024-02-02T16:49:50.914Z,1.50
2024-02-02T16:52:18.392Z,1.50
2024-02-02T16:54:48.206Z,1.38
2024-02-02T16:57:15.778Z,1.20
2024-02-02T16:59:44.016Z,1.23
2024-02-02T17:02:11.605Z,1.45
2024-02-02T17:04:39.133Z,1.73
2024-02-02T17:07:07.077Z,1.52
2024-02-02T17:09:39.640Z,1.80
2024-02-02T17:12:08.304Z,1.48
2024-02-02T17:14:35.802Z,1.52
2024-02-02T17:17:03.424Z,1.60
2024-02-02T17:19:30.976Z,1.20
2024-02-02T17:21:59.023Z,1.40
2024-02-02T17:24:26.577Z,1.30
2024-02-02T17:26:54.978Z,1.55
2024-02-02T17:29:22.464Z,1.30
2024-02-02T17:31:49.952Z,1.77
2024-02-02T17:34:17.595Z,1.48
2024-02-02T17:36:45.328Z,1.70
2024-02-02T17:39:13.545Z,1.50
2024-02-02T17:41:41.217Z,1.73
2024-02-02T17:44:08.738Z,1.60
2024-02-02T17:46:36.957Z,1.60
2024-02-02T17:49:04.686Z,2.10
2024-02-02T17:51:32.592Z,1.80
2024-02-02T17:54:01.777Z,1.60
2024-02-02T17:56:29.873Z,1.23
2024-02-02T17:58:57.380Z,1.63
2024-02-02T18:01:25.017Z,1.58
2024-02-02T18:03:53.109Z,1.70
2024-02-02T18:06:21.144Z,1.98
2024-02-02T18:08:48.695Z,1.25
2024-02-02T18:11:16.294Z,1.30
2024-02-02T18:13:44.358Z,1.73
2024-02-02T18:16:14.450Z,1.60
2024-02-02T18:18:42.105Z,1.55
2024-02-02T18:21:10.540Z,1.40
2024-02-02T18:23:38.644Z,1.42
2024-02-02T18:26:06.840Z,1.40
2024-02-02T18:28:34.361Z,1.33
2024-02-02T18:31:01.872Z,1.35
2024-02-02T18:33:29.655Z,1.30
2024-02-02T18:35:57.246Z,1.65
2024-02-02T18:38:24.866Z,1.50
2024-02-02T18:40:52.523Z,1.27
2024-02-02T18:43:19.993Z,1.60
2024-02-02T18:45:47.627Z,1.70
2024-02-02T18:48:15.976Z,1.80
2024-02-02T18:50:43.811Z,1.90
2024-02-02T18:53:11.448Z,1.70
2024-02-02T18:55:39.158Z,1.40
2024-02-02T18:58:06.594Z,1.50
2024-02-02T19:00:34.110Z,1.80
2024-02-02T19:03:01.720Z,1.40
2024-02-02T19:05:29.378Z,1.88
2024-02-02T19:07:56.948Z,1.48
2024-02-02T19:10:27.049Z,1.30
2024-02-02T19:12:54.629Z,1.40
2024-02-02T19:15:23.888Z,1.30
2024-02-02T19:17:51.632Z,1.40
2024-02-02T19:20:20.376Z,1.42
2024-02-02T19:22:47.901Z,1.15
2024-02-02T19:25:15.955Z,1.10
2024-02-02T19:27:43.491Z,1.20
2024-02-02T19:30:11.680Z,0.90
2024-02-02T19:32:39.267Z,1.30
2024-02-02T19:35:12.789Z,1.48
2024-02-02T19:37:40.823Z,1.57
2024-02-02T19:40:12.133Z,1.10
2024-02-02T19:42:40.966Z,1.33
2024-02-02T19:45:09.533Z,1.20
2024-02-02T19:47:37.237Z,1.10
2024-02-02T19:50:05.657Z,1.30
2024-02-02T19:52:33.177Z,1.00
2024-02-02T19:55:02.701Z,1.23
2024-02-02T19:57:31.752Z,1.10
2024-02-02T19:59:59.233Z,0.80
2024-02-02T20:02:29.947Z,1.00
2024-02-02T20:04:57.472Z,1.15
2024-02-02T20:07:25.293Z,1.50
2024-02-02T20:09:53.922Z,1.45
2024-02-02T20:12:21.418Z,1.48
2024-02-02T20:14:48.946Z,1.30
2024-02-02T20:17:17.624Z,2.33
2024-02-02T20:19:45.305Z,1.98
2024-02-02T20:22:12.814Z,1.30
2024-02-02T20:24:42.274Z,1.67
2024-02-02T20:27:10.001Z,1.60
2024-02-02T20:29:39.327Z,1.80
2024-02-02T20:32:07.373Z,1.95
2024-02-02T20:34:35.317Z,1.70
2024-02-02T20:37:02.874Z,1.38
2024-02-02T20:39:36.147Z,1.33
2024-02-02T20:42:04.855Z,1.40
2024-02-02T20:44:32.474Z,1.02
2024-02-02T20:47:02.755Z,1.13
2024-02-02T20:49:30.466Z,1.00
2024-02-02T20:51:57.961Z,1.00
2024-02-02T20:54:25.455Z,1.10
2024-02-02T20:56:52.993Z,1.30
2024-02-02T20:59:21.069Z,1.10
2024-02-02T21:01:49.052Z,0.85
2024-02-02T21:04:16.601Z,1.10
2024-02-02T21:06:44.571Z,1.50
2024-02-02T21:09:12.518Z,1.60
2024-02-02T21:11:40.019Z,1.30
2024-02-02T21:14:07.528Z,1.20
2024-02-02T21:16:35.036Z,1.20
2024-02-02T21:19:05.698Z,1.17
2024-02-02T21:21:33.334Z,1.20
2024-02-02T21:24:00.808Z,1.02
2024-02-02T21:26:30.410Z,1.23
2024-02-02T21:28:58.009Z,1.08
2024-02-02T21:31:25.472Z,1.38
2024-02-02T21:33:54.276Z,1.52
2024-02-02T21:36:21.928Z,1.00
2024-02-02T21:38:49.570Z,1.30
2024-02-02T21:41:17.033Z,1.20
2024-02-02T21:43:44.565Z,1.20
2024-02-02T21:46:21.820Z,1.40
2024-02-02T21:48:49.475Z,1.40
2024-02-02T21:51:17.119Z,1.50
2024-02-02T21:53:44.662Z,1.40
2024-02-02T21:56:12.214Z,1.02
2024-02-02T21:58:39.610Z,1.20
2024-02-02T22:01:07.259Z,1.10
2024-02-02T22:03:34.814Z,1.30
2024-02-02T22:06:05.835Z,1.08
2024-02-02T22:08:33.378Z,1.13
2024-02-02T22:11:00.907Z,1.40
2024-02-02T22:13:28.462Z,1.30
2024-02-02T22:15:55.968Z,1.15
2024-02-02T22:18:23.515Z,1.48
2024-02-02T22:20:51.031Z,1.45
2024-02-02T22:23:18.466Z,1.33
2024-02-02T22:25:45.929Z,1.27
2024-02-02T22:28:14.271Z,1.52
2024-02-02T22:30:41.713Z,1.15
2024-02-02T22:33:09.396Z,1.20
2024-02-02T22:35:36.938Z,0.93
2024-02-02T22:38:04.506Z,0.90
2024-02-02T22:40:32.907Z,1.15
2024-02-02T22:43:00.345Z,1.00
2024-02-02T22:45:27.816Z,1.00
2024-02-02T22:47:55.378Z,1.00
2024-02-02T22:50:22.847Z,0.85
2024-02-02T22:52:50.316Z,1.02
2024-02-02T22:55:17.760Z,1.00
2024-02-02T22:57:45.233Z,0.80
2024-02-02T23:00:19.395Z,0.85
2024-02-02T23:05:14.685Z,0.80
2024-02-02T23:07:42.396Z,0.80
2024-02-02T23:10:10.148Z,0.80
2024-02-02T23:12:37.690Z,0.90
2024-02-02T23:15:06.233Z,0.70
2024-02-02T23:17:33.712Z,0.90
2024-02-02T23:20:01.300Z,1.00
2024-02-02T23:22:28.863Z,0.90
2024-02-02T23:24:56.296Z,0.90
2024-02-02T23:27:23.768Z,0.88
2024-02-02T23:29:51.225Z,0.80
2024-02-02T23:32:19.262Z,0.80
2024-02-02T23:34:46.749Z,0.80
2024-02-02T23:37:14.200Z,1.00
2024-02-02T23:39:41.852Z,1.02
2024-02-02T23:42:09.569Z,1.70
2024-02-02T23:44:36.994Z,0.82
2024-02-02T23:47:04.961Z,0.90
2024-02-02T23:49:32.474Z,0.70
2024-02-02T23:51:59.965Z,0.73
2024-02-02T23:54:27.450Z,0.80
2024-02-02T23:56:54.927Z,0.93
2024-02-02T23:59:22.462Z,0.80
